sensor_id;sensor_type;location;lat;lon;timestamp;P1;durP1;ratioP1;P2;durP2;ratioP2
40367;SDS011;26075;43.320;21.920;2023-04-05T00:00:44;9.50;;;7.13;;
40367;SDS011;26075;43.320;21.920;2023-04-05T00:05:46;10.55;;;7.05;;
40367;SDS011;26075;43.320;21.920;2023-04-05T00:10:49;9.77;;;6.93;;
40367;SDS011;26075;43.320;21.920;2023-04-05T00:15:50;10.50;;;8.32;;
40367;SDS011;26075;43.320;21.920;2023-04-05T00:20:51;11.02;;;7.40;;
40367;SDS011;26075;43.320;21.920;2023-04-05T00:25:52;10.32;;;7.75;;
40367;SDS011;26075;43.320;21.920;2023-04-05T00:30:53;9.10;;;6.45;;
40367;SDS011;26075;43.320;21.920;2023-04-05T00:35:54;11.43;;;7.38;;
40367;SDS011;26075;43.320;21.920;2023-04-05T00:40:55;8.10;;;6.35;;
40367;SDS011;26075;43.320;21.920;2023-04-05T00:45:56;8.65;;;6.65;;
40367;SDS011;26075;43.320;21.920;2023-04-05T00:50:57;7.72;;;6.68;;
40367;SDS011;26075;43.320;21.920;2023-04-05T00:55:58;9.73;;;7.78;;
40367;SDS011;26075;43.320;21.920;2023-04-05T01:01:05;9.32;;;7.70;;
40367;SDS011;26075;43.320;21.920;2023-04-05T01:06:39;10.13;;;8.10;;
40367;SDS011;26075;43.320;21.920;2023-04-05T01:11:37;9.70;;;7.75;;
40367;SDS011;26075;43.320;21.920;2023-04-05T01:16:39;9.18;;;6.93;;
40367;SDS011;26075;43.320;21.920;2023-04-05T01:22:04;9.25;;;7.30;;
40367;SDS011;26075;43.320;21.920;2023-04-05T01:27:13;9.38;;;6.80;;
40367;SDS011;26075;43.320;21.920;2023-04-05T01:37:34;8.25;;;6.53;;
40367;SDS011;26075;43.320;21.920;2023-04-05T01:42:36;6.85;;;5.63;;
40367;SDS011;26075;43.320;21.920;2023-04-05T01:47:37;8.35;;;6.70;;
40367;SDS011;26075;43.320;21.920;2023-04-05T01:52:38;10.75;;;6.43;;
40367;SDS011;26075;43.320;21.920;2023-04-05T01:57:39;8.63;;;6.72;;
40367;SDS011;26075;43.320;21.920;2023-04-05T02:02:40;7.85;;;6.72;;
40367;SDS011;26075;43.320;21.920;2023-04-05T02:07:40;8.45;;;6.18;;
40367;SDS011;26075;43.320;21.920;2023-04-05T02:12:41;8.30;;;6.70;;
40367;SDS011;26075;43.320;21.920;2023-04-05T02:17:43;12.07;;;8.30;;
40367;SDS011;26075;43.320;21.920;2023-04-05T02:22:46;8.75;;;6.95;;
40367;SDS011;26075;43.320;21.920;2023-04-05T02:27:48;8.70;;;6.75;;
40367;SDS011;26075;43.320;21.920;2023-04-05T02:32:49;9.27;;;6.88;;
40367;SDS011;26075;43.320;21.920;2023-04-05T02:37:50;7.82;;;6.88;;
40367;SDS011;26075;43.320;21.920;2023-04-05T02:42:51;10.07;;;7.38;;
40367;SDS011;26075;43.320;21.920;2023-04-05T02:47:52;11.10;;;8.13;;
40367;SDS011;26075;43.320;21.920;2023-04-05T02:52:54;9.75;;;8.13;;
40367;SDS011;26075;43.320;21.920;2023-04-05T02:57:58;8.45;;;7.22;;
40367;SDS011;26075;43.320;21.920;2023-04-05T03:02:59;10.02;;;7.90;;
40367;SDS011;26075;43.320;21.920;2023-04-05T03:08:00;9.45;;;7.28;;
40367;SDS011;26075;43.320;21.920;2023-04-05T03:13:01;10.02;;;7.43;;
40367;SDS011;26075;43.320;21.920;2023-04-05T03:18:03;9.85;;;7.45;;
40367;SDS011;26075;43.320;21.920;2023-04-05T03:23:07;9.50;;;7.72;;
40367;SDS011;26075;43.320;21.920;2023-04-05T03:28:08;9.52;;;7.53;;
40367;SDS011;26075;43.320;21.920;2023-04-05T03:33:09;9.65;;;7.35;;
40367;SDS011;26075;43.320;21.920;2023-04-05T03:38:10;9.55;;;7.28;;
40367;SDS011;26075;43.320;21.920;2023-04-05T03:43:11;9.07;;;7.63;;
40367;SDS011;26075;43.320;21.920;2023-04-05T03:48:12;8.70;;;6.82;;
40367;SDS011;26075;43.320;21.920;2023-04-05T03:53:13;8.60;;;6.80;;
40367;SDS011;26075;43.320;21.920;2023-04-05T03:58:18;8.73;;;6.95;;
40367;SDS011;26075;43.320;21.920;2023-04-05T04:03:19;9.00;;;6.82;;
40367;SDS011;26075;43.320;21.920;2023-04-05T04:08:20;9.20;;;7.63;;
40367;SDS011;26075;43.320;21.920;2023-04-05T04:13:21;11.27;;;7.43;;
40367;SDS011;26075;43.320;21.920;2023-04-05T04:18:22;8.57;;;6.85;;
40367;SDS011;26075;43.320;21.920;2023-04-05T04:23:23;8.80;;;6.43;;
40367;SDS011;26075;43.320;21.920;2023-04-05T04:28:26;10.80;;;6.85;;
40367;SDS011;26075;43.320;21.920;2023-04-05T04:33:28;9.73;;;6.93;;
40367;SDS011;26075;43.320;21.920;2023-04-05T04:38:29;9.73;;;6.38;;
40367;SDS011;26075;43.320;21.920;2023-04-05T04:43:33;9.00;;;6.53;;
40367;SDS011;26075;43.320;21.920;2023-04-05T04:48:41;9.60;;;6.95;;
40367;SDS011;26075;43.320;21.920;2023-04-05T04:53:42;9.75;;;7.63;;
40367;SDS011;26075;43.320;21.920;2023-04-05T04:58:43;9.88;;;7.35;;
40367;SDS011;26075;43.320;21.920;2023-04-05T05:03:44;13.93;;;7.78;;
40367;SDS011;26075;43.320;21.920;2023-04-05T05:08:45;16.75;;;9.77;;
40367;SDS011;26075;43.320;21.920;2023-04-05T05:13:47;17.08;;;10.00;;
40367;SDS011;26075;43.320;21.920;2023-04-05T05:18:51;18.05;;;11.48;;
40367;SDS011;26075;43.320;21.920;2023-04-05T05:23:51;16.00;;;10.40;;
40367;SDS011;26075;43.320;21.920;2023-04-05T05:28:52;14.18;;;10.32;;
40367;SDS011;26075;43.320;21.920;2023-04-05T05:33:53;11.93;;;8.40;;
40367;SDS011;26075;43.320;21.920;2023-04-05T05:38:54;13.10;;;9.18;;
40367;SDS011;26075;43.320;21.920;2023-04-05T05:43:55;13.18;;;9.10;;
40367;SDS011;26075;43.320;21.920;2023-04-05T05:48:57;11.95;;;7.95;;
40367;SDS011;26075;43.320;21.920;2023-04-05T05:53:58;11.68;;;9.27;;
40367;SDS011;26075;43.320;21.920;2023-04-05T05:58:59;15.70;;;12.27;;
40367;SDS011;26075;43.320;21.920;2023-04-05T06:04:00;18.38;;;15.10;;
40367;SDS011;26075;43.320;21.920;2023-04-05T06:09:01;13.00;;;9.93;;
40367;SDS011;26075;43.320;21.920;2023-04-05T06:14:02;16.02;;;10.52;;
40367;SDS011;26075;43.320;21.920;2023-04-05T06:19:03;13.13;;;9.25;;
40367;SDS011;26075;43.320;21.920;2023-04-05T06:24:05;15.38;;;8.77;;
40367;SDS011;26075;43.320;21.920;2023-04-05T06:29:06;17.73;;;10.52;;
40367;SDS011;26075;43.320;21.920;2023-04-05T06:34:07;13.55;;;9.07;;
40367;SDS011;26075;43.320;21.920;2023-04-05T06:39:08;11.60;;;7.95;;
40367;SDS011;26075;43.320;21.920;2023-04-05T06:44:09;9.98;;;7.07;;
40367;SDS011;26075;43.320;21.920;2023-04-05T06:49:10;10.52;;;7.85;;
40367;SDS011;26075;43.320;21.920;2023-04-05T06:54:11;11.45;;;8.32;;
40367;SDS011;26075;43.320;21.920;2023-04-05T06:59:12;11.80;;;7.82;;
40367;SDS011;26075;43.320;21.920;2023-04-05T07:04:13;11.02;;;7.57;;
40367;SDS011;26075;43.320;21.920;2023-04-05T07:09:14;13.77;;;8.63;;
40367;SDS011;26075;43.320;21.920;2023-04-05T07:14:16;10.18;;;7.38;;
40367;SDS011;26075;43.320;21.920;2023-04-05T07:19:16;12.77;;;8.52;;
40367;SDS011;26075;43.320;21.920;2023-04-05T07:24:17;13.23;;;9.40;;
40367;SDS011;26075;43.320;21.920;2023-04-05T07:29:18;15.35;;;10.32;;
40367;SDS011;26075;43.320;21.920;2023-04-05T07:34:19;13.13;;;10.55;;
40367;SDS011;26075;43.320;21.920;2023-04-05T07:39:20;14.15;;;9.82;;
40367;SDS011;26075;43.320;21.920;2023-04-05T07:44:22;17.05;;;11.93;;
40367;SDS011;26075;43.320;21.920;2023-04-05T07:49:24;19.38;;;12.07;;
40367;SDS011;26075;43.320;21.920;2023-04-05T07:54:25;11.73;;;9.25;;
40367;SDS011;26075;43.320;21.920;2023-04-05T07:59:27;14.50;;;10.77;;
40367;SDS011;26075;43.320;21.920;2023-04-05T08:04:27;14.75;;;9.60;;
40367;SDS011;26075;43.320;21.920;2023-04-05T08:09:28;15.07;;;10.85;;
40367;SDS011;26075;43.320;21.920;2023-04-05T08:14:29;15.25;;;10.88;;
40367;SDS011;26075;43.320;21.920;2023-04-05T08:19:30;14.13;;;10.23;;
40367;SDS011;26075;43.320;21.920;2023-04-05T08:24:31;15.73;;;10.90;;
40367;SDS011;26075;43.320;21.920;2023-04-05T08:29:33;16.38;;;11.43;;
40367;SDS011;26075;43.320;21.920;2023-04-05T08:34:34;15.15;;;11.02;;
40367;SDS011;26075;43.320;21.920;2023-04-05T08:39:35;20.67;;;14.63;;
40367;SDS011;26075;43.320;21.920;2023-04-05T08:44:36;20.48;;;14.57;;
40367;SDS011;26075;43.320;21.920;2023-04-05T08:49:41;18.60;;;11.65;;
40367;SDS011;26075;43.320;21.920;2023-04-05T08:54:42;16.75;;;11.45;;
40367;SDS011;26075;43.320;21.920;2023-04-05T08:59:43;17.08;;;12.50;;
40367;SDS011;26075;43.320;21.920;2023-04-05T09:04:45;15.20;;;11.82;;
40367;SDS011;26075;43.320;21.920;2023-04-05T09:09:48;14.27;;;11.50;;
40367;SDS011;26075;43.320;21.920;2023-04-05T09:14:52;21.00;;;10.53;;
40367;SDS011;26075;43.320;21.920;2023-04-05T09:19:53;14.90;;;9.73;;
40367;SDS011;26075;43.320;21.920;2023-04-05T09:24:54;12.52;;;9.23;;
40367;SDS011;26075;43.320;21.920;2023-04-05T09:29:55;15.35;;;10.40;;
40367;SDS011;26075;43.320;21.920;2023-04-05T09:34:57;15.40;;;10.50;;
40367;SDS011;26075;43.320;21.920;2023-04-05T09:40:03;12.07;;;8.23;;
40367;SDS011;26075;43.320;21.920;2023-04-05T09:45:06;20.52;;;9.98;;
40367;SDS011;26075;43.320;21.920;2023-04-05T09:50:17;11.95;;;8.50;;
40367;SDS011;26075;43.320;21.920;2023-04-05T09:55:26;30.20;;;11.40;;
40367;SDS011;26075;43.320;21.920;2023-04-05T10:00:28;15.35;;;10.25;;
40367;SDS011;26075;43.320;21.920;2023-04-05T10:05:32;14.40;;;10.17;;
40367;SDS011;26075;43.320;21.920;2023-04-05T10:10:33;14.40;;;8.38;;
40367;SDS011;26075;43.320;21.920;2023-04-05T10:15:44;17.65;;;10.13;;
40367;SDS011;26075;43.320;21.920;2023-04-05T10:20:49;17.47;;;10.27;;
40367;SDS011;26075;43.320;21.920;2023-04-05T10:30:56;14.32;;;11.05;;
40367;SDS011;26075;43.320;21.920;2023-04-05T10:41:18;12.20;;;8.48;;
40367;SDS011;26075;43.320;21.920;2023-04-05T10:46:19;13.63;;;10.20;;
40367;SDS011;26075;43.320;21.920;2023-04-05T10:51:24;13.57;;;9.93;;
40367;SDS011;26075;43.320;21.920;2023-04-05T10:56:28;16.60;;;11.25;;
40367;SDS011;26075;43.320;21.920;2023-04-05T11:01:32;16.70;;;10.45;;
40367;SDS011;26075;43.320;21.920;2023-04-05T11:06:33;15.45;;;11.25;;
40367;SDS011;26075;43.320;21.920;2023-04-05T11:11:38;23.75;;;12.43;;
40367;SDS011;26075;43.320;21.920;2023-04-05T11:16:39;16.63;;;11.27;;
40367;SDS011;26075;43.320;21.920;2023-04-05T11:21:40;25.30;;;14.98;;
40367;SDS011;26075;43.320;21.920;2023-04-05T11:31:57;17.65;;;12.93;;
40367;SDS011;26075;43.320;21.920;2023-04-05T11:37:01;18.63;;;12.60;;
40367;SDS011;26075;43.320;21.920;2023-04-05T11:42:06;14.10;;;11.75;;
40367;SDS011;26075;43.320;21.920;2023-04-05T11:47:11;15.90;;;12.15;;
40367;SDS011;26075;43.320;21.920;2023-04-05T11:52:16;15.45;;;12.73;;
40367;SDS011;26075;43.320;21.920;2023-04-05T11:57:19;16.00;;;13.32;;
40367;SDS011;26075;43.320;21.920;2023-04-05T12:02:21;16.17;;;12.38;;
40367;SDS011;26075;43.320;21.920;2023-04-05T12:07:24;18.30;;;13.45;;
40367;SDS011;26075;43.320;21.920;2023-04-05T12:12:25;21.65;;;14.85;;
40367;SDS011;26075;43.320;21.920;2023-04-05T12:17:39;24.65;;;17.33;;
40367;SDS011;26075;43.320;21.920;2023-04-05T12:22:45;23.00;;;16.30;;
40367;SDS011;26075;43.320;21.920;2023-04-05T12:27:48;19.77;;;16.30;;
40367;SDS011;26075;43.320;21.920;2023-04-05T12:32:50;22.58;;;15.70;;
40367;SDS011;26075;43.320;21.920;2023-04-05T12:37:51;18.10;;;15.25;;
40367;SDS011;26075;43.320;21.920;2023-04-05T12:42:52;20.30;;;15.80;;
40367;SDS011;26075;43.320;21.920;2023-04-05T12:48:12;23.13;;;16.13;;
40367;SDS011;26075;43.320;21.920;2023-04-05T12:53:15;19.65;;;15.27;;
40367;SDS011;26075;43.320;21.920;2023-04-05T12:58:19;19.67;;;15.25;;
40367;SDS011;26075;43.320;21.920;2023-04-05T13:03:20;19.75;;;15.77;;
40367;SDS011;26075;43.320;21.920;2023-04-05T13:08:22;19.63;;;15.38;;
40367;SDS011;26075;43.320;21.920;2023-04-05T13:13:25;19.50;;;16.40;;
40367;SDS011;26075;43.320;21.920;2023-04-05T13:18:27;21.77;;;17.08;;
40367;SDS011;26075;43.320;21.920;2023-04-05T13:23:28;18.60;;;15.02;;
40367;SDS011;26075;43.320;21.920;2023-04-05T13:28:29;17.25;;;14.65;;
40367;SDS011;26075;43.320;21.920;2023-04-05T13:33:30;20.33;;;16.23;;
40367;SDS011;26075;43.320;21.920;2023-04-05T13:38:31;20.05;;;16.10;;
40367;SDS011;26075;43.320;21.920;2023-04-05T13:43:31;18.45;;;15.35;;
40367;SDS011;26075;43.320;21.920;2023-04-05T13:48:32;17.25;;;14.30;;
40367;SDS011;26075;43.320;21.920;2023-04-05T13:53:33;17.15;;;14.52;;
40367;SDS011;26075;43.320;21.920;2023-04-05T13:58:35;17.38;;;14.40;;
40367;SDS011;26075;43.320;21.920;2023-04-05T14:03:35;17.83;;;14.48;;
40367;SDS011;26075;43.320;21.920;2023-04-05T14:08:36;19.45;;;15.68;;
40367;SDS011;26075;43.320;21.920;2023-04-05T14:13:37;21.77;;;16.38;;
40367;SDS011;26075;43.320;21.920;2023-04-05T14:18:38;22.30;;;16.35;;
40367;SDS011;26075;43.320;21.920;2023-04-05T14:23:39;18.90;;;15.40;;
40367;SDS011;26075;43.320;21.920;2023-04-05T14:28:40;20.20;;;15.65;;
40367;SDS011;26075;43.320;21.920;2023-04-05T14:33:41;26.48;;;17.67;;
40367;SDS011;26075;43.320;21.920;2023-04-05T14:38:42;18.80;;;15.20;;
40367;SDS011;26075;43.320;21.920;2023-04-05T14:43:43;17.98;;;14.45;;
40367;SDS011;26075;43.320;21.920;2023-04-05T14:48:44;27.58;;;16.63;;
40367;SDS011;26075;43.320;21.920;2023-04-05T14:53:45;19.33;;;15.95;;
40367;SDS011;26075;43.320;21.920;2023-04-05T14:58:46;16.65;;;14.20;;
40367;SDS011;26075;43.320;21.920;2023-04-05T15:03:47;18.27;;;15.70;;
40367;SDS011;26075;43.320;21.920;2023-04-05T15:08:49;19.02;;;15.10;;
40367;SDS011;26075;43.320;21.920;2023-04-05T15:13:50;19.02;;;14.98;;
40367;SDS011;26075;43.320;21.920;2023-04-05T15:18:51;17.25;;;14.15;;
40367;SDS011;26075;43.320;21.920;2023-04-05T15:23:54;19.38;;;14.18;;
40367;SDS011;26075;43.320;21.920;2023-04-05T15:28:55;16.85;;;14.23;;
40367;SDS011;26075;43.320;21.920;2023-04-05T15:33:56;14.95;;;12.48;;
40367;SDS011;26075;43.320;21.920;2023-04-05T15:38:57;16.30;;;13.10;;
40367;SDS011;26075;43.320;21.920;2023-04-05T15:43:58;16.20;;;13.85;;
40367;SDS011;26075;43.320;21.920;2023-04-05T15:48:59;22.15;;;15.10;;
40367;SDS011;26075;43.320;21.920;2023-04-05T15:54:01;16.92;;;13.35;;
40367;SDS011;26075;43.320;21.920;2023-04-05T15:59:02;17.27;;;13.48;;
40367;SDS011;26075;43.320;21.920;2023-04-05T16:04:03;21.17;;;13.95;;
40367;SDS011;26075;43.320;21.920;2023-04-05T16:09:04;17.95;;;14.48;;
40367;SDS011;26075;43.320;21.920;2023-04-05T16:14:05;19.65;;;14.43;;
40367;SDS011;26075;43.320;21.920;2023-04-05T16:19:06;19.90;;;14.70;;
40367;SDS011;26075;43.320;21.920;2023-04-05T16:24:07;20.95;;;16.05;;
40367;SDS011;26075;43.320;21.920;2023-04-05T16:29:08;21.67;;;14.93;;
40367;SDS011;26075;43.320;21.920;2023-04-05T16:34:09;20.02;;;14.70;;
40367;SDS011;26075;43.320;21.920;2023-04-05T16:39:10;25.15;;;16.95;;
40367;SDS011;26075;43.320;21.920;2023-04-05T16:44:11;26.95;;;19.33;;
40367;SDS011;26075;43.320;21.920;2023-04-05T16:49:12;20.60;;;15.82;;
40367;SDS011;26075;43.320;21.920;2023-04-05T16:54:14;22.35;;;15.98;;
40367;SDS011;26075;43.320;21.920;2023-04-05T16:59:16;24.42;;;18.35;;
40367;SDS011;26075;43.320;21.920;2023-04-05T17:04:17;24.23;;;17.52;;
40367;SDS011;26075;43.320;21.920;2023-04-05T17:09:18;23.45;;;18.65;;
40367;SDS011;26075;43.320;21.920;2023-04-05T17:29:37;21.42;;;17.92;;
40367;SDS011;26075;43.320;21.920;2023-04-05T17:34:38;24.00;;;19.33;;
40367;SDS011;26075;43.320;21.920;2023-04-05T17:39:39;25.35;;;17.77;;
40367;SDS011;26075;43.320;21.920;2023-04-05T17:56:46;24.88;;;18.35;;
40367;SDS011;26075;43.320;21.920;2023-04-05T18:01:47;25.50;;;20.23;;
40367;SDS011;26075;43.320;21.920;2023-04-05T18:06:52;26.02;;;19.70;;
40367;SDS011;26075;43.320;21.920;2023-04-05T18:11:53;26.70;;;19.60;;
40367;SDS011;26075;43.320;21.920;2023-04-05T18:16:55;24.02;;;20.17;;
40367;SDS011;26075;43.320;21.920;2023-04-05T18:21:56;27.80;;;19.95;;
40367;SDS011;26075;43.320;21.920;2023-04-05T18:26:57;29.10;;;19.80;;
40367;SDS011;26075;43.320;21.920;2023-04-05T18:31:58;35.22;;;23.33;;
40367;SDS011;26075;43.320;21.920;2023-04-05T18:36:59;34.05;;;25.23;;
40367;SDS011;26075;43.320;21.920;2023-04-05T18:42:01;32.28;;;23.30;;
40367;SDS011;26075;43.320;21.920;2023-04-05T18:47:02;31.50;;;22.17;;
40367;SDS011;26075;43.320;21.920;2023-04-05T18:52:03;39.88;;;28.23;;
40367;SDS011;26075;43.320;21.920;2023-04-05T18:57:05;35.13;;;25.67;;
40367;SDS011;26075;43.320;21.920;2023-04-05T19:02:06;31.13;;;22.73;;
40367;SDS011;26075;43.320;21.920;2023-04-05T19:07:07;26.70;;;19.67;;
40367;SDS011;26075;43.320;21.920;2023-04-05T19:12:08;24.98;;;18.45;;
40367;SDS011;26075;43.320;21.920;2023-04-05T19:17:10;30.60;;;22.33;;
40367;SDS011;26075;43.320;21.920;2023-04-05T19:22:11;29.20;;;19.95;;
40367;SDS011;26075;43.320;21.920;2023-04-05T19:27:12;26.33;;;21.20;;
40367;SDS011;26075;43.320;21.920;2023-04-05T19:32:13;26.60;;;19.30;;
40367;SDS011;26075;43.320;21.920;2023-04-05T19:37:16;27.23;;;20.65;;
40367;SDS011;26075;43.320;21.920;2023-04-05T19:42:17;30.80;;;22.02;;
40367;SDS011;26075;43.320;21.920;2023-04-05T19:47:18;25.70;;;21.63;;
40367;SDS011;26075;43.320;21.920;2023-04-05T19:52:35;29.83;;;22.00;;
40367;SDS011;26075;43.320;21.920;2023-04-05T19:57:37;32.60;;;24.67;;
40367;SDS011;26075;43.320;21.920;2023-04-05T20:02:40;40.10;;;28.85;;
40367;SDS011;26075;43.320;21.920;2023-04-05T20:07:41;32.90;;;23.27;;
40367;SDS011;26075;43.320;21.920;2023-04-05T20:12:42;28.70;;;22.30;;
40367;SDS011;26075;43.320;21.920;2023-04-05T20:17:45;29.20;;;22.02;;
40367;SDS011;26075;43.320;21.920;2023-04-05T20:22:47;30.85;;;20.90;;
40367;SDS011;26075;43.320;21.920;2023-04-05T20:27:56;29.70;;;21.13;;
40367;SDS011;26075;43.320;21.920;2023-04-05T20:32:57;26.83;;;20.00;;
40367;SDS011;26075;43.320;21.920;2023-04-05T20:37:58;30.75;;;21.75;;
40367;SDS011;26075;43.320;21.920;2023-04-05T20:43:00;27.05;;;21.65;;
40367;SDS011;26075;43.320;21.920;2023-04-05T20:48:02;29.88;;;22.23;;
40367;SDS011;26075;43.320;21.920;2023-04-05T20:53:03;29.95;;;21.65;;
40367;SDS011;26075;43.320;21.920;2023-04-05T20:58:04;31.38;;;22.13;;
40367;SDS011;26075;43.320;21.920;2023-04-05T21:03:09;29.17;;;21.58;;
40367;SDS011;26075;43.320;21.920;2023-04-05T21:08:10;28.73;;;22.27;;
40367;SDS011;26075;43.320;21.920;2023-04-05T21:13:11;29.65;;;21.75;;
40367;SDS011;26075;43.320;21.920;2023-04-05T21:18:12;37.47;;;29.85;;
40367;SDS011;26075;43.320;21.920;2023-04-05T21:23:13;36.67;;;28.00;;
40367;SDS011;26075;43.320;21.920;2023-04-05T21:28:15;43.63;;;31.77;;
40367;SDS011;26075;43.320;21.920;2023-04-05T21:33:16;45.47;;;32.05;;
40367;SDS011;26075;43.320;21.920;2023-04-05T21:38:17;35.38;;;26.75;;
40367;SDS011;26075;43.320;21.920;2023-04-05T21:43:18;38.30;;;28.60;;
40367;SDS011;26075;43.320;21.920;2023-04-05T21:48:19;36.72;;;28.00;;
40367;SDS011;26075;43.320;21.920;2023-04-05T21:53:20;36.10;;;26.95;;
40367;SDS011;26075;43.320;21.920;2023-04-05T21:58:23;37.22;;;28.58;;
40367;SDS011;26075;43.320;21.920;2023-04-05T22:03:25;32.17;;;25.58;;
40367;SDS011;26075;43.320;21.920;2023-04-05T22:08:26;33.30;;;26.20;;
40367;SDS011;26075;43.320;21.920;2023-04-05T22:13:27;34.00;;;25.33;;
40367;SDS011;26075;43.320;21.920;2023-04-05T22:18:29;31.73;;;24.40;;
40367;SDS011;26075;43.320;21.920;2023-04-05T22:23:30;31.52;;;25.60;;
40367;SDS011;26075;43.320;21.920;2023-04-05T22:28:31;32.22;;;26.35;;
40367;SDS011;26075;43.320;21.920;2023-04-05T22:33:32;39.13;;;29.25;;
40367;SDS011;26075;43.320;21.920;2023-04-05T22:38:33;37.58;;;30.50;;
40367;SDS011;26075;43.320;21.920;2023-04-05T22:43:34;37.92;;;29.08;;
40367;SDS011;26075;43.320;21.920;2023-04-05T22:48:35;44.38;;;31.52;;
40367;SDS011;26075;43.320;21.920;2023-04-05T22:53:36;36.17;;;28.02;;
40367;SDS011;26075;43.320;21.920;2023-04-05T22:58:37;35.65;;;25.50;;
40367;SDS011;26075;43.320;21.920;2023-04-05T23:03:38;37.60;;;28.90;;
40367;SDS011;26075;43.320;21.920;2023-04-05T23:08:40;40.75;;;27.73;;
40367;SDS011;26075;43.320;21.920;2023-04-05T23:13:41;36.65;;;26.35;;
40367;SDS011;26075;43.320;21.920;2023-04-05T23:18:42;36.35;;;25.27;;
40367;SDS011;26075;43.320;21.920;2023-04-05T23:23:43;28.73;;;22.77;;
40367;SDS011;26075;43.320;21.920;2023-04-05T23:28:44;31.80;;;23.38;;
40367;SDS011;26075;43.320;21.920;2023-04-05T23:33:44;28.02;;;21.13;;
40367;SDS011;26075;43.320;21.920;2023-04-05T23:38:46;28.05;;;21.02;;
40367;SDS011;26075;43.320;21.920;2023-04-05T23:43:47;29.35;;;22.63;;
40367;SDS011;26075;43.320;21.920;2023-04-05T23:48:48;31.73;;;23.33;;
40367;SDS011;26075;43.320;21.920;2023-04-05T23:53:49;31.15;;;22.77;;
40367;SDS011;26075;43.320;21.920;2023-04-05T23:58:50;26.42;;;20.90;;
